Time;durP1;ratioP1;P1;durP2;ratioP2;P2;SDS_P1;SDS_P2;PMS_P1;PMS_P2;Temp;Humidity;BMP_temperature;BMP_pressure;BME280_temperature;BME280_humidity;BME280_pressure;Samples;Min_cycle;Max_cycle;Signal;HPM_P1;HPM_P2
2022/06/26 00:01:31;;;;;;;11.57;8.20;;;16.30;99.90;;;;;;5073788;28;20164;-69
2022/06/26 00:03:57;;;;;;;11.20;8.90;;;16.30;99.90;;;;;;5073504;28;20169;-69
2022/06/26 00:06:23;;;;;;;13.40;9.03;;;16.30;99.90;;;;;;5073123;28;20581;-69
2022/06/26 00:08:49;;;;;;;13.77;9.10;;;16.20;99.90;;;;;;5073591;28;20289;-69
2022/06/26 00:11:16;;;;;;;12.63;9.20;;;16.10;99.90;;;;;;5072266;28;20728;-68
2022/06/26 00:13:42;;;;;;;15.07;8.63;;;16.10;99.90;;;;;;5073320;28;20212;-69
2022/06/26 00:16:08;;;;;;;13.23;9.10;;;16.00;99.90;;;;;;5073293;28;20176;-68
2022/06/26 00:18:33;;;;;;;13.97;8.47;;;16.00;99.90;;;;;;5073332;28;20236;-69
2022/06/26 00:20:59;;;;;;;12.17;8.13;;;16.00;99.90;;;;;;5073060;28;20177;-69
2022/06/26 00:23:25;;;;;;;11.00;8.20;;;15.90;99.90;;;;;;5073321;28;20173;-69
2022/06/26 00:25:50;;;;;;;14.10;8.90;;;15.90;99.90;;;;;;5073193;28;20203;-68
2022/06/26 00:28:17;;;;;;;13.67;8.53;;;15.80;99.90;;;;;;5072854;28;20208;-69
2022/06/26 00:30:43;;;;;;;13.20;8.80;;;15.80;99.90;;;;;;5073037;28;20188;-69
2022/06/26 00:33:08;;;;;;;12.07;8.00;;;15.80;99.90;;;;;;5073154;28;20636;-68
2022/06/26 00:35:34;;;;;;;12.10;8.40;;;15.90;99.90;;;;;;5071733;28;20222;-69
2022/06/26 00:38:00;;;;;;;12.40;8.93;;;15.90;99.90;;;;;;5073100;28;20241;-69
2022/06/26 00:40:25;;;;;;;12.77;8.57;;;15.90;99.90;;;;;;5073178;28;20180;-69
2022/06/26 00:42:51;;;;;;;9.53;7.97;;;15.90;99.90;;;;;;5070987;28;20631;-68
2022/06/26 00:45:17;;;;;;;12.17;8.10;;;15.80;99.90;;;;;;5073007;28;20255;-69
2022/06/26 00:47:42;;;;;;;11.60;7.90;;;15.70;99.90;;;;;;5073003;28;20204;-69
2022/06/26 00:50:08;;;;;;;11.50;7.90;;;15.70;99.90;;;;;;5072920;28;20208;-68
2022/06/26 00:52:35;;;;;;;10.57;7.77;;;15.70;99.90;;;;;;5073175;28;20211;-68
2022/06/26 00:55:02;;;;;;;11.73;8.17;;;15.70;99.90;;;;;;5072896;28;20184;-68
2022/06/26 00:57:28;;;;;;;9.97;6.97;;;15.70;99.90;;;;;;5073021;28;20168;-68
2022/06/26 00:59:56;;;;;;;11.03;7.63;;;15.70;99.90;;;;;;5072976;28;20640;-69
2022/06/26 01:02:21;;;;;;;12.03;9.17;;;15.70;99.90;;;;;;5072938;28;20255;-68
2022/06/26 01:04:47;;;;;;;16.20;9.10;;;15.70;99.90;;;;;;5072841;28;20592;-68
2022/06/26 01:07:13;;;;;;;15.87;9.47;;;15.60;99.90;;;;;;5072688;28;20261;-68
2022/06/26 01:09:39;;;;;;;14.40;9.80;;;15.60;99.90;;;;;;5072984;28;20207;-69
2022/06/26 01:12:06;;;;;;;21.03;13.33;;;15.60;99.90;;;;;;5072901;28;20524;-68
2022/06/26 01:14:31;;;;;;;19.37;12.33;;;15.70;99.90;;;;;;5072662;28;20224;-69
2022/06/26 01:16:59;;;;;;;21.07;13.00;;;15.70;99.90;;;;;;5072819;28;20663;-68
2022/06/26 01:19:25;;;;;;;21.77;14.00;;;15.90;99.90;;;;;;5072563;28;20164;-68
2022/06/26 01:21:51;;;;;;;25.60;16.13;;;15.80;99.90;;;;;;5073127;28;20172;-68
2022/06/26 01:24:17;;;;;;;24.67;14.90;;;15.80;99.90;;;;;;5072660;28;20536;-68
2022/06/26 01:26:42;;;;;;;22.07;14.67;;;15.80;99.90;;;;;;5072807;28;20200;-68
2022/06/26 01:29:08;;;;;;;23.50;15.10;;;15.70;99.90;;;;;;5072654;28;20219;-68
2022/06/26 01:31:34;;;;;;;23.67;14.83;;;15.60;99.90;;;;;;5072877;28;20203;-68
2022/06/26 01:34:06;;;;;;;20.80;14.23;;;15.60;99.90;;;;;;5071108;28;20660;-68
2022/06/26 01:36:32;;;;;;;24.23;14.27;;;15.50;99.90;;;;;;5072764;28;20252;-68
2022/06/26 01:38:58;;;;;;;27.47;15.37;;;15.50;99.90;;;;;;5071530;28;20595;-68
2022/06/26 01:41:24;;;;;;;25.93;15.00;;;15.50;99.90;;;;;;5072739;28;20165;-68
2022/06/26 01:43:49;;;;;;;23.17;14.63;;;15.40;99.90;;;;;;5072507;28;20636;-68
2022/06/26 01:46:15;;;;;;;25.33;14.33;;;15.40;99.90;;;;;;5072505;28;20179;-67
2022/06/26 01:48:42;;;;;;;22.93;14.30;;;15.40;99.90;;;;;;5072326;28;20267;-68
2022/06/26 01:51:08;;;;;;;28.37;14.53;;;15.40;99.90;;;;;;5072571;28;20248;-68
2022/06/26 01:53:35;;;;;;;23.43;14.37;;;15.40;99.90;;;;;;5073338;28;20173;-68
2022/06/26 01:56:02;;;;;;;27.10;15.03;;;15.30;99.90;;;;;;5075988;28;20188;-67
2022/06/26 01:58:27;;;;;;;27.30;15.57;;;15.40;99.90;;;;;;5076120;28;20644;-67
2022/06/26 02:00:56;;;;;;;25.03;14.87;;;15.40;99.90;;;;;;5075979;28;20175;-67
2022/06/26 02:03:24;;;;;;;24.97;15.50;;;15.40;99.90;;;;;;5075869;28;20301;-67
2022/06/26 02:05:50;;;;;;;26.57;14.93;;;15.30;99.90;;;;;;5075622;28;20289;-68
2022/06/26 02:08:16;;;;;;;26.77;15.00;;;15.30;99.90;;;;;;5075847;28;20208;-67
2022/06/26 02:13:42;;;;;;;24.90;14.23;;;15.20;99.90;;;;;;5076184;28;20175;-67
2022/06/26 02:16:13;;;;;;;24.97;14.60;;;15.10;99.90;;;;;;5075851;28;20612;-68
2022/06/26 02:18:41;;;;;;;24.17;14.83;;;15.10;99.90;;;;;;5075613;28;20648;-68
2022/06/26 02:21:09;;;;;;;26.40;14.87;;;15.10;99.90;;;;;;5075603;28;20164;-67
2022/06/26 02:23:36;;;;;;;26.67;14.00;;;15.10;99.90;;;;;;5075658;28;20168;-67
2022/06/26 02:26:03;;;;;;;27.23;15.23;;;15.10;99.90;;;;;;5074395;28;20221;-67
2022/06/26 02:28:28;;;;;;;25.90;14.37;;;15.10;99.90;;;;;;5075386;28;20321;-69
2022/06/26 02:30:54;;;;;;;23.30;13.57;;;15.10;99.90;;;;;;5075042;28;20172;-68
2022/06/26 02:33:19;;;;;;;25.23;13.63;;;15.10;99.90;;;;;;5075440;28;20523;-67
2022/06/26 02:35:46;;;;;;;25.40;14.53;;;15.10;99.90;;;;;;5075191;28;20176;-68
2022/06/26 02:38:12;;;;;;;27.77;14.10;;;15.20;99.90;;;;;;5075356;28;20180;-67
2022/06/26 02:40:37;;;;;;;24.07;13.80;;;15.20;99.90;;;;;;5075324;28;20238;-67
2022/06/26 02:43:03;;;;;;;25.37;13.57;;;15.20;99.90;;;;;;5075107;28;20620;-67
2022/06/26 02:45:29;;;;;;;21.57;12.90;;;15.20;99.90;;;;;;5074679;28;20564;-68
2022/06/26 02:47:54;;;;;;;22.70;13.43;;;15.20;99.90;;;;;;5073751;28;20236;-68
2022/06/26 02:50:20;;;;;;;26.20;12.87;;;15.30;99.90;;;;;;5075192;28;20168;-67
2022/06/26 02:52:46;;;;;;;19.27;12.27;;;15.30;99.90;;;;;;5075128;28;20160;-68
2022/06/26 02:55:12;;;;;;;18.47;11.50;;;15.30;99.90;;;;;;5074879;28;20171;-68
2022/06/26 02:57:37;;;;;;;18.80;11.43;;;15.20;99.90;;;;;;5075017;28;20266;-67
2022/06/26 03:00:05;;;;;;;15.33;10.50;;;15.30;99.90;;;;;;5074566;28;20263;-68
2022/06/26 03:02:31;;;;;;;15.93;10.07;;;15.20;99.90;;;;;;5074860;28;20177;-67
2022/06/26 03:04:57;;;;;;;16.73;10.13;;;15.20;99.90;;;;;;5072836;28;20195;-67
2022/06/26 03:07:23;;;;;;;17.50;10.37;;;15.20;99.90;;;;;;5074356;28;20224;-67
2022/06/26 03:09:48;;;;;;;16.27;9.30;;;15.10;99.90;;;;;;5074744;28;20226;-68
2022/06/26 03:12:14;;;;;;;12.80;9.27;;;15.20;99.90;;;;;;5074771;28;20648;-67
2022/06/26 03:14:40;;;;;;;16.57;9.60;;;15.10;99.90;;;;;;5073989;28;20172;-69
2022/06/26 03:17:06;;;;;;;14.77;9.40;;;15.20;99.90;;;;;;5074563;28;20628;-69
2022/06/26 03:19:32;;;;;;;16.60;9.50;;;15.20;99.90;;;;;;5074219;28;20285;-68
2022/06/26 03:21:58;;;;;;;14.10;10.07;;;15.20;99.90;;;;;;5074424;28;20260;-69
2022/06/26 03:24:23;;;;;;;11.93;8.43;;;15.20;99.90;;;;;;5074446;28;20173;-67
2022/06/26 03:26:49;;;;;;;11.27;8.73;;;15.20;99.90;;;;;;5074037;28;20579;-67
2022/06/26 03:29:15;;;;;;;13.77;9.10;;;15.20;99.90;;;;;;5073839;28;20216;-67
2022/06/26 03:31:40;;;;;;;11.13;8.50;;;15.20;99.90;;;;;;5074068;28;20639;-67
2022/06/26 03:34:06;;;;;;;14.93;9.10;;;15.30;99.90;;;;;;5074042;28;20177;-68
2022/06/26 03:36:33;;;;;;;13.60;8.43;;;15.30;99.90;;;;;;5074258;28;20196;-68
2022/06/26 03:38:59;;;;;;;10.03;7.70;;;15.30;99.90;;;;;;5073799;28;20176;-67
2022/06/26 03:41:26;;;;;;;12.87;7.63;;;15.30;99.90;;;;;;5073872;28;20636;-68
2022/06/26 03:43:51;;;;;;;12.10;7.80;;;15.30;99.90;;;;;;5073269;28;20682;-68
2022/06/26 03:46:17;;;;;;;10.27;6.90;;;15.30;99.90;;;;;;5073889;28;20279;-69
2022/06/26 03:48:43;;;;;;;10.67;7.60;;;15.30;99.90;;;;;;5073617;28;20281;-68
2022/06/26 03:51:09;;;;;;;9.63;7.37;;;15.40;99.90;;;;;;5073711;28;20230;-68
2022/06/26 03:53:35;;;;;;;9.30;7.07;;;15.60;99.90;;;;;;5073729;28;20177;-68
2022/06/26 03:56:01;;;;;;;9.73;6.57;;;16.00;99.90;;;;;;5072123;28;20199;-68
2022/06/26 03:58:27;;;;;;;9.63;7.13;;;16.20;99.90;;;;;;5073379;28;20172;-68
2022/06/26 04:00:53;;;;;;;11.17;7.37;;;16.30;99.90;;;;;;5073734;28;20189;-67
2022/06/26 04:03:19;;;;;;;9.40;7.20;;;16.30;99.90;;;;;;5073354;28;20624;-69
2022/06/26 04:05:45;;;;;;;10.23;6.83;;;16.40;99.90;;;;;;5073198;28;20262;-68
2022/06/26 04:08:11;;;;;;;10.83;7.47;;;16.50;99.90;;;;;;5072122;28;20255;-67
2022/06/26 04:10:37;;;;;;;8.17;6.97;;;16.40;99.90;;;;;;5073465;28;20168;-67
2022/06/26 04:13:08;;;;;;;8.60;6.97;;;16.40;99.90;;;;;;5071607;28;20173;-68
2022/06/26 04:15:35;;;;;;;10.03;6.87;;;16.40;99.90;;;;;;5073128;28;20634;-68
2022/06/26 04:18:02;;;;;;;10.80;7.03;;;16.30;99.90;;;;;;5073135;28;20226;-68
2022/06/26 04:20:29;;;;;;;10.40;6.50;;;16.30;99.90;;;;;;5073332;28;20200;-68
2022/06/26 04:23:07;;;;;;;9.83;6.93;;;16.60;99.90;;;;;;5073513;28;20259;-68
2022/06/26 04:25:34;;;;;;;9.30;6.77;;;16.60;98.90;;;;;;5073293;28;20172;-68
2022/06/26 04:28:00;;;;;;;10.60;6.60;;;16.50;99.90;;;;;;5072878;28;20258;-67
2022/06/26 04:30:26;;;;;;;10.40;7.00;;;16.40;98.80;;;;;;5072934;28;20173;-68
2022/06/26 04:32:52;;;;;;;9.07;6.73;;;16.30;99.90;;;;;;5073415;28;20242;-68
2022/06/26 04:35:18;;;;;;;10.60;6.47;;;16.10;99.90;;;;;;5073131;28;20175;-67
2022/06/26 04:37:46;;;;;;;10.03;6.30;;;16.10;99.90;;;;;;5072007;28;20267;-68
2022/06/26 04:40:13;;;;;;;9.23;6.50;;;15.90;99.90;;;;;;5072932;28;20197;-68
2022/06/26 04:42:40;;;;;;;7.70;6.03;;;16.00;99.90;;;;;;5072344;28;20567;-68
2022/06/26 04:45:06;;;;;;;9.87;6.30;;;16.20;99.90;;;;;;5071504;28;20186;-68
2022/06/26 04:47:32;;;;;;;8.90;6.07;;;16.60;99.90;;;;;;5072655;28;20212;-69
2022/06/26 04:49:58;;;;;;;8.10;5.70;;;17.60;98.90;;;;;;5072974;28;20646;-69
2022/06/26 04:52:23;;;;;;;9.20;6.07;;;18.60;53.60;;;;;;5071649;28;20521;-69
2022/06/26 04:54:50;;;;;;;6.63;5.17;;;19.20;15.10;;;;;;5072732;28;20211;-69
2022/06/26 04:57:16;;;;;;;8.53;5.27;;;19.10;8.10;;;;;;5072475;28;20204;-68
2022/06/26 04:59:43;;;;;;;7.97;5.10;;;19.40;1.00;;;;;;5072769;28;20192;-69
2022/06/26 05:02:09;;;;;;;7.65;5.93;;;19.20;1.00;;;;;;5072370;28;20243;-68
2022/06/26 05:04:35;;;;;;;9.18;5.43;;;19.00;1.00;;;;;;5071232;28;20632;-69
2022/06/26 05:07:01;;;;;;;8.63;6.07;;;18.80;3.90;;;;;;5072530;28;20232;-69
2022/06/26 05:09:26;;;;;;;8.87;5.57;;;18.60;9.90;;;;;;5071426;28;20225;-68
2022/06/26 05:11:52;;;;;;;9.53;5.90;;;18.20;24.70;;;;;;5072466;28;20169;-68
2022/06/26 05:14:18;;;;;;;7.17;5.57;;;18.10;27.10;;;;;;5072697;28;20226;-69
2022/06/26 05:16:44;;;;;;;9.37;5.93;;;17.70;46.50;;;;;;5072491;28;20252;-69
2022/06/26 05:19:10;;;;;;;8.50;6.63;;;17.70;49.00;;;;;;5072655;28;20642;-69
2022/06/26 05:21:36;;;;;;;8.43;6.10;;;17.90;49.30;;;;;;5072626;28;20179;-68
2022/06/26 05:24:02;;;;;;;9.67;6.10;;;17.80;44.70;;;;;;5072736;28;20255;-68
2022/06/26 05:26:28;;;;;;;9.00;6.97;;;17.90;45.30;;;;;;5072311;28;20164;-69
2022/06/26 05:28:53;;;;;;;9.90;6.40;;;17.70;45.70;;;;;;5073958;28;20216;-69
2022/06/26 05:31:19;;;;;;;8.27;6.73;;;17.60;48.50;;;;;;5076223;28;20255;-68
2022/06/26 05:33:45;;;;;;;7.73;6.77;;;17.50;55.30;;;;;;5075866;28;20561;-68
2022/06/26 05:36:11;;;;;;;10.13;6.53;;;17.50;52.10;;;;;;5076498;28;20169;-68
2022/06/26 05:38:37;;;;;;;13.60;6.73;;;17.70;48.60;;;;;;5076266;28;20169;-69
2022/06/26 05:41:04;;;;;;;9.20;6.77;;;17.90;52.60;;;;;;5074637;28;20168;-68
2022/06/26 05:43:30;;;;;;;9.87;6.43;;;18.10;40.10;;;;;;5076109;28;20179;-69
2022/06/26 05:45:56;;;;;;;11.67;6.67;;;18.10;39.80;;;;;;5075669;28;20192;-68
2022/06/26 05:48:24;;;;;;;10.90;6.53;;;18.20;37.00;;;;;;5075932;28;20216;-68
2022/06/26 05:50:49;;;;;;;8.57;6.17;;;17.90;31.90;;;;;;5076070;28;20271;-68
2022/06/26 05:53:15;;;;;;;8.97;6.10;;;17.80;37.80;;;;;;5076253;28;20308;-68
2022/06/26 05:55:41;;;;;;;10.20;6.37;;;17.60;46.00;;;;;;5075255;28;20322;-67
2022/06/26 05:58:06;;;;;;;10.63;6.20;;;17.60;55.70;;;;;;5075824;28;20172;-69
2022/06/26 06:00:33;;;;;;;11.10;6.60;;;17.90;44.00;;;;;;5075828;28;20230;-67
2022/06/26 06:02:59;;;;;;;10.17;6.83;;;18.30;40.40;;;;;;5075663;28;20241;-67
2022/06/26 06:05:25;;;;;;;10.87;6.20;;;18.30;26.60;;;;;;5075420;28;20501;-68
2022/06/26 06:07:52;;;;;;;10.53;6.70;;;18.40;22.40;;;;;;5075875;28;20211;-69
2022/06/26 06:10:19;;;;;;;8.20;6.00;;;18.30;29.20;;;;;;5075091;28;20180;-69
2022/06/26 06:12:45;;;;;;;8.20;5.33;;;18.20;30.40;;;;;;5075407;28;20204;-68
2022/06/26 06:15:11;;;;;;;7.10;6.23;;;18.10;26.00;;;;;;5075649;28;20169;-69
2022/06/26 06:17:37;;;;;;;9.20;5.67;;;18.10;34.10;;;;;;5075554;28;20184;-69
2022/06/26 06:20:10;;;;;;;10.20;6.10;;;18.20;34.50;;;;;;5075521;28;20569;-69
2022/06/26 06:22:36;;;;;;;9.57;6.20;;;18.10;29.10;;;;;;5075345;28;20260;-69
2022/06/26 06:25:02;;;;;;;8.73;5.73;;;18.20;34.30;;;;;;5075012;28;20263;-68
2022/06/26 06:27:28;;;;;;;8.40;5.73;;;18.10;26.50;;;;;;5075323;28;20209;-68
2022/06/26 06:29:53;;;;;;;7.60;5.77;;;18.10;34.10;;;;;;5075313;28;20287;-69
2022/06/26 06:32:19;;;;;;;8.97;5.80;;;18.20;32.60;;;;;;5075220;28;20177;-69
2022/06/26 06:34:44;;;;;;;6.10;5.43;;;18.20;39.20;;;;;;5075262;28;20204;-69
2022/06/26 06:37:10;;;;;;;8.03;5.63;;;18.50;31.00;;;;;;5075253;28;20450;-68
2022/06/26 06:39:36;;;;;;;7.63;5.20;;;18.60;27.00;;;;;;5073928;28;20624;-68
2022/06/26 06:42:01;;;;;;;8.37;5.70;;;18.60;22.20;;;;;;5074684;28;20717;-68
2022/06/26 06:44:27;;;;;;;8.23;6.07;;;18.50;19.50;;;;;;5075101;28;20181;-69
2022/06/26 06:46:53;;;;;;;9.80;5.63;;;18.40;19.30;;;;;;5074673;28;20532;-69
2022/06/26 06:49:19;;;;;;;7.57;5.73;;;18.10;39.60;;;;;;5073338;28;20228;-69
2022/06/26 06:51:44;;;;;;;11.00;6.27;;;18.00;39.60;;;;;;5074727;28;20179;-69
2022/06/26 06:54:10;;;;;;;8.37;6.03;;;17.80;51.30;;;;;;5074596;28;20181;-70
2022/06/26 06:56:35;;;;;;;8.33;6.17;;;17.80;53.60;;;;;;5074928;28;20205;-69
2022/06/26 06:59:01;;;;;;;10.30;6.10;;;18.00;48.80;;;;;;5074782;28;20181;-70
2022/06/26 07:01:27;;;;;;;9.13;6.43;;;17.80;52.70;;;;;;5074405;28;20196;-70
2022/06/26 07:03:53;;;;;;;6.93;5.23;;;18.00;63.50;;;;;;5074495;28;20211;-69
2022/06/26 07:06:19;;;;;;;7.00;4.80;;;18.20;45.20;;;;;;5073828;28;20228;-70
2022/06/26 07:08:44;;;;;;;6.63;5.83;;;18.40;38.20;;;;;;5074523;28;20257;-69
2022/06/26 07:11:10;;;;;;;8.97;5.67;;;18.60;27.00;;;;;;5074661;28;20177;-69
2022/06/26 07:13:36;;;;;;;8.77;5.97;;;18.90;24.10;;;;;;5074127;28;20643;-68
2022/06/26 07:16:03;;;;;;;9.43;6.28;;;19.20;2.70;;;;;;5074174;28;20172;-68
2022/06/26 07:18:28;;;;;;;8.75;6.03;;;19.60;1.00;;;;;;5074212;28;20196;-70
2022/06/26 07:20:54;;;;;;;10.52;6.72;;;19.50;1.00;;;;;;5073873;28;20169;-70
2022/06/26 07:23:20;;;;;;;11.43;6.25;;;19.50;1.00;;;;;;5074239;28;20632;-69
2022/06/26 07:25:46;;;;;;;9.18;6.18;;;19.40;1.00;;;;;;5073845;28;20172;-69
2022/06/26 07:28:12;;;;;;;10.00;6.30;;;19.20;1.00;;;;;;5074013;28;20563;-69
2022/06/26 07:30:38;;;;;;;10.55;7.25;;;19.30;1.00;;;;;;5073741;28;20260;-69
2022/06/26 07:35:53;;;;;;;11.18;7.55;;;19.50;1.00;;;;;;5073777;28;20175;-70
2022/06/26 07:38:19;;;;;;;9.57;6.82;;;19.60;1.00;;;;;;5073868;28;20207;-70
2022/06/26 07:40:44;;;;;;;11.27;7.22;;;19.60;1.00;;;;;;5073620;28;20648;-70
2022/06/26 07:43:10;;;;;;;9.05;6.90;;;19.30;1.00;;;;;;5074045;28;20219;-70
2022/06/26 07:45:35;;;;;;;7.68;6.72;;;18.90;7.00;;;;;;5073717;28;20643;-70
2022/06/26 07:48:01;;;;;;;11.07;7.18;;;18.60;17.10;;;;;;5073276;28;20302;-70
2022/06/26 07:50:28;;;;;;;12.35;7.35;;;18.80;15.70;;;;;;5073299;28;20168;-70
2022/06/26 07:52:54;;;;;;;11.95;7.25;;;19.00;12.10;;;;;;5073164;28;20173;-70
2022/06/26 07:55:20;;;;;;;8.15;6.65;;;19.20;2.20;;;;;;5073069;28;20195;-70
2022/06/26 07:57:45;;;;;;;10.25;6.80;;;19.30;2.20;;;;;;5073740;28;20169;-70
2022/06/26 08:00:12;;;;;;;10.52;7.13;;;19.50;1.00;;;;;;5073156;28;20226;-71
2022/06/26 08:02:37;;;;;;;7.97;6.70;;;19.60;1.00;;;;;;5073352;28;20196;-69
2022/06/26 08:05:03;;;;;;;8.80;7.53;;;19.60;1.00;;;;;;5072959;28;20240;-69
2022/06/26 08:07:29;;;;;;;10.73;7.60;;;19.70;1.00;;;;;;5072995;28;20228;-70
2022/06/26 08:09:54;;;;;;;10.68;8.43;;;19.50;1.00;;;;;;5073013;28;20623;-69
2022/06/26 08:12:20;;;;;;;11.80;8.85;;;19.60;1.00;;;;;;5073203;28;20675;-69
2022/06/26 08:14:46;;;;;;;10.40;8.57;;;19.70;1.00;;;;;;5073198;28;20179;-69
2022/06/26 08:17:11;;;;;;;13.07;9.32;;;19.90;1.00;;;;;;5073069;28;20165;-70
2022/06/26 08:19:37;;;;;;;12.63;9.20;;;20.00;1.00;;;;;;5072132;28;20177;-70
2022/06/26 08:22:02;;;;;;;12.45;9.07;;;20.00;1.00;;;;;;5073160;28;20172;-69
2022/06/26 08:24:33;;;;;;;11.50;9.63;;;19.90;1.00;;;;;;5073025;28;20519;-70
2022/06/26 08:26:59;;;;;;;13.85;10.23;;;19.80;1.00;;;;;;5071822;28;20173;-69
2022/06/26 08:29:26;;;;;;;13.32;10.48;;;19.70;1.00;;;;;;5072763;28;20337;-70
2022/06/26 08:31:52;;;;;;;11.27;9.98;;;19.60;1.00;;;;;;5073258;28;20600;-70
2022/06/26 08:34:18;;;;;;;13.25;11.27;;;19.90;1.00;;;;;;5072538;28;20173;-70
2022/06/26 08:36:44;;;;;;;12.35;10.68;;;19.90;1.00;;;;;;5073048;28;20168;-70
2022/06/26 08:39:10;;;;;;;15.40;10.35;;;20.00;1.00;;;;;;5072109;28;20244;-70
2022/06/26 08:41:41;;;;;;;14.57;11.02;;;20.30;1.00;;;;;;5073277;28;20229;-70
2022/06/26 08:44:08;;;;;;;14.68;11.35;;;20.10;1.00;;;;;;5072677;28;20179;-70
2022/06/26 08:46:39;;;;;;;14.73;10.85;;;20.10;1.00;;;;;;5072826;28;20258;-70
2022/06/26 08:49:14;;;;;;;13.75;11.10;;;20.10;1.00;;;;;;5072040;28;20216;-71
2022/06/26 08:51:42;;;;;;;11.65;10.45;;;20.20;1.00;;;;;;5072782;28;20670;-70
2022/06/26 08:54:09;;;;;;;15.02;10.63;;;20.30;1.00;;;;;;5072834;28;20250;-71
2022/06/26 08:56:41;;;;;;;11.38;9.77;;;20.50;1.00;;;;;;5072995;28;20189;-70
2022/06/26 08:59:07;;;;;;;11.57;10.07;;;20.70;1.00;;;;;;5071840;28;20172;-70
2022/06/26 09:01:34;;;;;;;17.55;11.15;;;20.70;1.00;;;;;;5072688;28;20639;-69
2022/06/26 09:04:00;;;;;;;12.40;10.13;;;20.80;1.00;;;;;;5073874;28;20176;-70
2022/06/26 09:06:26;;;;;;;14.68;10.70;;;20.50;1.00;;;;;;5076374;28;20223;-70
2022/06/26 09:08:52;;;;;;;16.42;10.50;;;20.90;1.00;;;;;;5076530;28;20204;-70
2022/06/26 09:11:18;;;;;;;12.15;10.35;;;21.60;1.00;;;;;;5076365;28;20267;-70
2022/06/26 09:13:45;;;;;;;17.42;10.57;;;22.40;1.00;;;;;;5076472;28;20168;-70
2022/06/26 09:16:13;;;;;;;12.35;10.15;;;23.50;96.30;;;;;;5076746;28;20184;-70
2022/06/26 09:18:40;;;;;;;14.68;10.25;;;23.80;1.00;;;;;;5074459;28;20641;-70
2022/06/26 09:21:07;;;;;;;13.27;10.00;;;24.00;1.00;;;;;;5076616;28;20172;-71
2022/06/26 09:23:34;;;;;;;11.63;10.40;;;24.40;1.00;;;;;;5076513;28;20259;-71
2022/06/26 09:26:01;;;;;;;10.68;9.55;;;24.40;99.90;;;;;;5076367;28;20172;-71
2022/06/26 09:28:28;;;;;;;11.63;9.32;;;24.40;48.10;;;;;;5076087;28;20208;-70
2022/06/26 09:30:56;;;;;;;10.15;8.98;;;24.10;99.90;;;;;;5075833;28;20165;-69
2022/06/26 09:33:26;;;;;;;11.38;9.98;;;24.30;99.90;;;;;;5075709;28;20181;-70
2022/06/26 09:35:53;;;;;;;12.30;9.48;;;24.90;99.90;;;;;;5076266;28;20180;-71
2022/06/26 09:38:29;;;;;;;10.80;8.60;;;24.70;1.00;;;;;;5075726;28;20184;-70
2022/06/26 09:40:58;;;;;;;9.68;8.68;;;23.90;1.00;;;;;;5074699;28;20576;-70
2022/06/26 09:43:31;;;;;;;11.52;8.40;;;23.80;1.00;;;;;;5074815;28;20244;-71
2022/06/26 09:45:59;;;;;;;9.27;8.05;;;24.20;1.00;;;;;;5075773;28;20168;-71
2022/06/26 09:48:26;;;;;;;9.85;8.13;;;24.20;1.00;;;;;;5075336;28;20262;-70
2022/06/26 09:50:53;;;;;;;7.47;6.20;;;24.30;99.90;;;;;;5075798;28;20176;-71
2022/06/26 09:53:20;;;;;;;6.22;4.22;;;24.10;1.00;;;;;;5075893;28;20175;-70
2022/06/26 09:55:48;;;;;;;5.22;4.32;;;23.20;44.80;;;;;;5075345;28;20196;-69
2022/06/26 09:58:14;;;;;;;5.82;3.83;;;23.10;1.00;;;;;;5076034;28;20279;-71
2022/06/26 10:00:41;;;;;;;5.22;3.78;;;22.70;32.90;;;;;;5073698;28;20267;-70
2022/06/26 10:08:42;;;;;;;3.92;2.20;;;22.20;1.00;;;;;;5075012;28;20269;-69
2022/06/26 10:11:08;;;;;;;4.32;3.00;;;21.90;1.00;;;;;;5075804;28;20218;-70
2022/06/26 10:13:37;;;;;;;4.22;2.50;;;22.20;1.00;;;;;;5075235;28;20238;-70
2022/06/26 10:16:14;;;;;;;4.50;2.60;;;22.60;83.20;;;;;;5074731;28;20635;-70
2022/06/26 10:19:07;;;;;;;5.32;2.85;;;22.90;1.00;;;;;;5075118;28;20227;-70
2022/06/26 10:21:39;;;;;;;5.85;2.70;;;23.20;1.00;;;;;;5075046;28;20165;-70
2022/06/26 10:24:06;;;;;;;4.85;3.13;;;23.80;1.00;;;;;;5075400;28;20169;-71
2022/06/26 10:26:32;;;;;;;4.82;2.85;;;24.40;99.90;;;;;;5075286;28;20169;-70
2022/06/26 10:29:06;;;;;;;4.28;2.60;;;23.60;99.90;;;;;;5074733;28;20215;-70
2022/06/26 10:31:50;;;;;;;3.88;3.22;;;22.50;1.00;;;;;;5074576;28;20164;-69
2022/06/26 10:34:23;;;;;;;4.25;2.45;;;22.50;1.00;;;;;;5075065;28;20624;-70
2022/06/26 10:37:10;;;;;;;2.58;2.20;;;22.60;1.00;;;;;;5075065;28;20176;-71
2022/06/26 10:39:46;;;;;;;4.88;2.33;;;22.30;99.90;;;;;;5074358;28;20184;-69
2022/06/26 10:45:07;;;;;;;2.63;2.22;;;22.20;99.90;;;;;;5074608;28;20175;-70
2022/06/26 10:47:43;;;;;;;8.40;2.50;;;22.30;99.90;;;;;;5074731;28;20176;-70
2022/06/26 10:50:31;;;;;;;5.72;2.25;;;23.30;99.90;;;;;;5074646;28;20175;-70
2022/06/26 10:53:23;;;;;;;1.98;1.67;;;23.80;99.90;;;;;;5074977;28;20176;-71
2022/06/26 10:55:58;;;;;;;3.85;2.05;;;24.10;1.00;;;;;;5074337;28;20259;-70
2022/06/26 10:58:27;;;;;;;3.90;2.40;;;24.20;1.00;;;;;;5073231;28;20168;-70
2022/06/26 11:00:57;;;;;;;5.20;2.30;;;24.30;99.90;;;;;;5074370;28;20210;-70
2022/06/26 11:03:23;;;;;;;3.25;2.40;;;24.10;1.00;;;;;;5074089;28;20172;-71
2022/06/26 11:06:01;;;;;;;3.88;2.33;;;24.30;1.00;;;;;;5074352;28;20699;-70
2022/06/26 11:08:35;;;;;;;4.18;2.30;;;24.50;1.00;;;;;;5073856;28;20211;-70
2022/06/26 11:11:14;;;;;;;2.95;2.20;;;23.90;1.00;;;;;;5072678;28;20164;-71
2022/06/26 11:13:55;;;;;;;4.20;2.50;;;23.90;99.90;;;;;;5073629;28;20179;-70
2022/06/26 11:16:34;;;;;;;3.50;1.90;;;24.60;99.90;;;;;;5074303;28;20164;-70
2022/06/26 11:19:03;;;;;;;4.03;2.22;;;24.80;91.50;;;;;;5073877;28;20192;-70
2022/06/26 11:21:29;;;;;;;3.00;2.30;;;24.50;63.70;;;;;;5073766;28;20157;-68
2022/06/26 11:23:56;;;;;;;4.63;2.42;;;24.10;92.80;;;;;;5074222;28;20183;-69
2022/06/26 11:26:22;;;;;;;3.17;2.10;;;24.30;1.00;;;;;;5073460;28;20160;-70
2022/06/26 11:29:02;;;;;;;3.92;2.13;;;24.50;44.30;;;;;;5073373;28;20208;-71
2022/06/26 11:31:31;;;;;;;3.88;2.00;;;25.30;1.00;;;;;;5073641;28;20184;-70
2022/06/26 11:34:14;;;;;;;2.25;1.98;;;25.50;1.00;;;;;;5074027;28;20173;-71
2022/06/26 11:37:00;;;;;;;6.10;2.03;;;26.10;99.90;;;;;;5073821;28;20187;-69
2022/06/26 11:39:46;;;;;;;5.03;1.85;;;26.30;99.90;;;;;;5073119;28;20212;-70
2022/06/26 11:42:15;;;;;;;2.90;2.00;;;25.50;99.90;;;;;;5072915;28;20203;-70
2022/06/26 11:44:51;;;;;;;2.45;2.13;;;24.50;1.00;;;;;;5073523;28;20223;-70
2022/06/26 11:47:18;;;;;;;2.92;1.90;;;24.20;1.00;;;;;;5073730;28;20616;-70
2022/06/26 11:49:44;;;;;;;4.13;2.25;;;24.30;1.00;;;;;;5073413;28;20169;-70
2022/06/26 11:52:11;;;;;;;2.85;2.20;;;24.30;1.00;;;;;;5073842;28;20196;-70
2022/06/26 11:54:36;;;;;;;3.95;2.33;;;24.60;1.00;;;;;;5073421;28;20249;-70
2022/06/26 11:57:09;;;;;;;4.28;2.40;;;24.40;1.00;;;;;;5073199;28;20185;-70
2022/06/26 11:59:42;;;;;;;3.20;2.38;;;23.60;1.00;;;;;;5073262;28;20251;-70
2022/06/26 12:02:18;;;;;;;4.35;2.70;;;23.20;1.00;;;;;;5073659;28;20198;-70
2022/06/26 12:04:54;;;;;;;3.47;2.20;;;23.10;99.90;;;;;;5073115;28;20163;-71
2022/06/26 12:07:20;;;;;;;4.70;2.70;;;23.00;1.00;;;;;;5073073;28;20255;-70
2022/06/26 12:09:45;;;;;;;5.28;2.80;;;23.40;99.90;;;;;;5073105;28;20643;-71
2022/06/26 12:12:14;;;;;;;4.18;3.53;;;23.80;1.00;;;;;;5072667;28;20539;-71
2022/06/26 12:14:50;;;;;;;5.03;2.33;;;23.80;1.00;;;;;;5071539;28;20172;-70
2022/06/26 12:17:24;;;;;;;3.08;2.47;;;23.10;99.90;;;;;;5073209;28;20172;-69
2022/06/26 12:19:50;;;;;;;4.38;2.63;;;22.60;99.90;;;;;;5072953;28;20236;-70
2022/06/26 12:22:29;;;;;;;3.97;2.25;;;22.40;1.00;;;;;;5072800;28;20584;-70
2022/06/26 12:24:56;;;;;;;3.97;2.42;;;22.30;81.10;;;;;;5072323;28;20177;-70
2022/06/26 12:27:36;;;;;;;2.75;2.30;;;22.40;1.00;;;;;;5072577;28;20179;-71
2022/06/26 12:30:02;;;;;;;4.60;2.53;;;22.50;1.00;;;;;;5072559;28;20175;-70
2022/06/26 12:32:28;;;;;;;3.75;2.40;;;22.50;1.00;;;;;;5072734;28;20562;-70
2022/06/26 12:34:54;;;;;;;4.07;2.45;;;22.80;94.60;;;;;;5073056;28;20172;-69
2022/06/26 12:37:19;;;;;;;3.80;2.70;;;23.10;33.90;;;;;;5072813;28;20168;-71
2022/06/26 12:39:46;;;;;;;3.65;2.00;;;23.10;1.00;;;;;;5070547;28;20218;-70
2022/06/26 12:42:12;;;;;;;3.78;2.00;;;23.50;1.00;;;;;;5072284;28;20211;-71
2022/06/26 12:44:38;;;;;;;4.63;2.60;;;23.40;99.90;;;;;;5072149;28;20192;-70
2022/06/26 12:47:03;;;;;;;2.58;2.03;;;23.30;99.90;;;;;;5072534;28;20184;-69
2022/06/26 12:49:29;;;;;;;3.85;2.70;;;22.90;1.00;;;;;;5072269;28;20216;-70
2022/06/26 12:51:55;;;;;;;4.13;2.28;;;23.00;1.00;;;;;;5072629;28;20175;-71
2022/06/26 12:54:20;;;;;;;3.30;1.98;;;23.20;99.90;;;;;;5072507;28;20204;-70
2022/06/26 12:56:46;;;;;;;3.50;2.20;;;22.90;1.00;;;;;;5072646;28;20686;-70
2022/06/26 12:59:11;;;;;;;3.60;1.88;;;23.10;99.90;;;;;;5071363;28;20204;-70